Mumbai, India

6:24 PM IST on November 28, 2014 (GMT +0530)
Chhatrapati Shivaji International | Change Station
CLOSE
Current Station
Airport
Location: Mumbai,
Elevation: 46 ft
Nearby Weather Stations

Elev 46 ft 19.10 °N, 72.86 °E | Updated 14 minutes ago

Smoke
Smoke
86 °F
Feels Like 88 °F
N
6
Wind Variable Wind from NW

Today
High -- | Low -- °F
--% Chance of Precip.
Yesterday
High -- | Low -- °F
Precip. -- in
6:53 AM 5:59 PM
Waxing Crescent, 40% visible
Pressure 29.83 in
Visibility 1.3 miles
Clouds
Heat Index 88 °F
Dew Point 66 °F
Humidity 51%
Rainfall 0.00 in
Snow Depth Not available.
UV Not available.
Pollen Not available.
Air Quality Not available.
Flu Activity Not available.
METAR VABB 281240Z 31005KT 2100 FU NSC 30/19 Q1010 NOSIG

More Conditions Fewer Conditions

Pressure 29.83 in
Visibility 1.3 miles
Clouds
Heat Index 88 °F
Dew Point 66 °F
Humidity 51%
Rainfall 0.00 in
Snow Depth Not available.
UV Not available.
Pollen Not available.
Air Quality Not available.
Flu Activity Not available.
METAR VABB 281240Z 31005KT 2100 FU NSC 30/19 Q1010 NOSIG

More Conditions Fewer Conditions

10-Day Weather Forecast

Almanac

Astronomy

Nov. 28, 2014 Rise Set
Actual Time
Civil Twilight
Nautical Twilight
Astronomical Twilight
Moon
Length of Visible Light
Length of Day
Tomorrow will be .
, % of the Moon is Illuminated

Today's Extremes

Country Highs Country Lows

Community

WunderPhotos

Upload Photos

1,774,199 photos uploaded!

WunderBlogs® & News

Nearby

Air Quality

  Air Quality AQ Index Pollutant
Not available.

Snow Depth

Station Depth Elevation

Earthquake Activity

City Distance Mag. Time & Date
Minimum magnitude displayed is 2.5.

Coastal Water Temperatures

Place Temperature

Nearby Weather Stations